Time;durP1;ratioP1;P1;durP2;ratioP2;P2;SDS_P1;SDS_P2;PMS_P1;PMS_P2;Temp;Humidity;BMP_temperature;BMP_pressure;BME280_temperature;BME280_humidity;BME280_pressure;Samples;Min_cycle;Max_cycle;Signal;HPM_P1;HPM_P2
2022/11/27 00:01:17;;;;;;;13.23;6.73;;;5.30;88.20;;;;;;5041617;28;20055;-69
2022/11/27 00:03:48;;;;;;;15.93;6.65;;;5.20;88.10;;;;;;5049911;28;20087;-68
2022/11/27 00:06:18;;;;;;;10.73;6.30;;;5.20;88.10;;;;;;5049069;28;20043;-67
2022/11/27 00:08:46;;;;;;;11.82;6.30;;;5.20;88.00;;;;;;5047663;28;20507;-68
2022/11/27 00:11:15;;;;;;;14.07;6.65;;;5.20;88.00;;;;;;5049523;28;20036;-67
2022/11/27 00:13:42;;;;;;;10.88;5.90;;;5.10;87.90;;;;;;5049303;28;20438;-70
2022/11/27 00:16:09;;;;;;;12.25;6.20;;;5.10;87.90;;;;;;5051389;28;20083;-70
2022/11/27 00:18:38;;;;;;;12.32;6.05;;;5.10;87.80;;;;;;5048217;28;20049;-68
2022/11/27 00:21:06;;;;;;;12.55;5.97;;;5.10;87.80;;;;;;5049015;28;20041;-68
2022/11/27 00:23:36;;;;;;;14.43;6.13;;;5.00;87.80;;;;;;5048071;28;20049;-67
2022/11/27 00:26:05;;;;;;;12.32;6.72;;;4.90;87.70;;;;;;5049606;28;20037;-69
2022/11/27 00:28:32;;;;;;;10.43;5.35;;;5.00;87.80;;;;;;5049190;28;20049;-68
2022/11/27 00:30:59;;;;;;;11.40;5.50;;;4.90;87.80;;;;;;5048234;28;20056;-69
2022/11/27 00:33:26;;;;;;;10.30;5.25;;;4.90;88.00;;;;;;5049584;28;20141;-69
2022/11/27 00:35:55;;;;;;;14.57;6.00;;;4.90;88.20;;;;;;5048887;28;20084;-68
2022/11/27 00:38:22;;;;;;;13.88;5.38;;;4.90;88.40;;;;;;5049123;28;20446;-68
2022/11/27 00:40:49;;;;;;;11.65;5.05;;;5.00;88.50;;;;;;5047848;28;20068;-68
2022/11/27 00:43:16;;;;;;;10.88;5.00;;;5.00;88.60;;;;;;5047950;28;20056;-67
2022/11/27 00:45:48;;;;;;;12.85;5.55;;;5.00;88.70;;;;;;5047600;28;20045;-67
2022/11/27 00:48:15;;;;;;;10.27;4.57;;;5.10;88.90;;;;;;5047934;28;20093;-68
2022/11/27 00:50:41;;;;;;;12.55;5.22;;;5.10;89.00;;;;;;5048392;28;20056;-69
2022/11/27 00:53:16;;;;;;;11.70;5.22;;;5.20;89.10;;;;;;5042420;28;20056;-68
2022/11/27 00:55:46;;;;;;;12.80;6.45;;;5.10;89.30;;;;;;5046674;28;20076;-68
2022/11/27 00:58:13;;;;;;;12.57;5.93;;;5.20;89.50;;;;;;5047497;28;20048;-68
2022/11/27 01:00:39;;;;;;;10.05;6.00;;;5.10;89.90;;;;;;5045506;28;20056;-69
2022/11/27 01:03:06;;;;;;;14.45;6.60;;;5.20;90.00;;;;;;5047788;28;20041;-69
2022/11/27 01:05:37;;;;;;;14.95;6.43;;;5.20;90.20;;;;;;5047661;28;20128;-67
2022/11/27 01:08:04;;;;;;;13.82;6.38;;;5.20;90.30;;;;;;5046934;28;20617;-68
2022/11/27 01:10:32;;;;;;;14.32;6.55;;;5.20;90.30;;;;;;5047765;28;20059;-68
2022/11/27 01:12:59;;;;;;;12.77;5.75;;;5.10;90.40;;;;;;5045577;28;20302;-67
2022/11/27 01:15:26;;;;;;;15.77;7.18;;;5.10;90.50;;;;;;5046662;28;20889;-70
2022/11/27 01:17:53;;;;;;;14.23;6.47;;;5.10;90.60;;;;;;5046241;28;20041;-67
2022/11/27 01:20:20;;;;;;;13.50;6.70;;;5.10;90.50;;;;;;5048721;28;20045;-67
2022/11/27 01:22:47;;;;;;;16.65;7.97;;;5.10;90.60;;;;;;5048887;28;20506;-68
2022/11/27 01:25:14;;;;;;;12.93;6.95;;;5.20;90.70;;;;;;5048441;28;20044;-69
2022/11/27 01:27:43;;;;;;;12.48;6.78;;;5.20;90.80;;;;;;5048752;28;20134;-68
2022/11/27 01:30:11;;;;;;;13.82;7.30;;;5.10;90.80;;;;;;5048922;28;20446;-68
2022/11/27 01:32:38;;;;;;;13.02;6.10;;;5.20;90.70;;;;;;5049124;28;20472;-68
2022/11/27 01:35:06;;;;;;;11.98;6.65;;;5.20;90.80;;;;;;5048373;28;20143;-67
2022/11/27 01:37:33;;;;;;;14.45;6.68;;;5.20;90.80;;;;;;5051333;28;20714;-68
2022/11/27 01:39:59;;;;;;;10.40;6.25;;;5.20;90.80;;;;;;5051924;28;20037;-67
2022/11/27 01:42:26;;;;;;;11.77;6.50;;;5.20;90.60;;;;;;5051859;28;20048;-66
2022/11/27 01:44:55;;;;;;;12.27;6.55;;;5.30;90.40;;;;;;5052050;28;20045;-66
2022/11/27 01:47:33;;;;;;;10.95;6.38;;;5.30;90.50;;;;;;5052793;28;20048;-68
2022/11/27 01:50:07;;;;;;;13.40;7.35;;;5.20;90.50;;;;;;5051721;28;20048;-68
2022/11/27 01:52:38;;;;;;;14.23;7.95;;;5.20;90.50;;;;;;5051982;28;20407;-67
2022/11/27 01:55:09;;;;;;;13.63;7.13;;;5.30;90.50;;;;;;5052614;28;20049;-68
2022/11/27 01:57:40;;;;;;;;;;;5.20;90.40;;;;;;5051844;28;20049;-68
2022/11/27 02:00:11;;;;;;;14.70;6.70;;;5.20;90.40;;;;;;5048951;28;19951;-67
2022/11/27 02:02:42;;;;;;;16.90;7.90;;;5.20;90.30;;;;;;5049692;28;20139;-69
2022/11/27 02:05:10;;;;;;;12.63;7.35;;;5.20;90.20;;;;;;5051895;28;20111;-69
2022/11/27 02:07:37;;;;;;;13.35;6.97;;;5.20;90.10;;;;;;5049719;28;20077;-68
2022/11/27 02:10:06;;;;;;;12.20;6.85;;;5.20;90.10;;;;;;5051506;28;20495;-69
2022/11/27 02:12:47;;;;;;;13.68;7.38;;;5.20;90.00;;;;;;5052140;28;20503;-68
2022/11/27 02:15:22;;;;;;;11.82;6.18;;;5.20;89.90;;;;;;5052225;28;20076;-68
2022/11/27 02:17:55;;;;;;;11.38;6.75;;;5.20;89.70;;;;;;5050143;28;20045;-60
2022/11/27 02:20:40;;;;;;;10.98;5.78;;;5.20;89.70;;;;;;5051288;28;20128;-66
2022/11/27 02:23:44;;;;;;;9.52;5.55;;;5.10;89.70;;;;;;5049923;28;20514;-66
2022/11/27 02:26:37;;;;;;;12.25;6.18;;;5.10;89.90;;;;;;5050401;28;20122;-61
2022/11/27 02:29:07;;;;;;;10.93;6.03;;;5.10;89.90;;;;;;5049853;28;20041;-61
2022/11/27 02:31:40;;;;;;;9.30;5.35;;;5.10;89.90;;;;;;5048825;28;20419;-65
2022/11/27 02:34:14;;;;;;;9.45;5.53;;;5.10;90.00;;;;;;5049488;28;20052;-65
2022/11/27 02:36:48;;;;;;;9.35;5.53;;;5.10;90.10;;;;;;5049521;28;20049;-68
2022/11/27 02:39:21;;;;;;;10.15;5.47;;;5.10;90.20;;;;;;5049263;28;20099;-66
2022/11/27 02:41:57;;;;;;;9.95;5.18;;;5.10;90.20;;;;;;5048227;28;20075;-60
2022/11/27 02:44:29;;;;;;;9.90;5.25;;;5.20;90.20;;;;;;5048505;28;20425;-60
2022/11/27 02:46:59;;;;;;;11.63;5.72;;;5.20;90.20;;;;;;5048422;28;20037;-61
2022/11/27 02:49:27;;;;;;;10.45;5.85;;;5.20;90.20;;;;;;5045158;28;20122;-60
2022/11/27 02:51:59;;;;;;;11.35;6.20;;;5.20;90.10;;;;;;5049921;28;20506;-60
2022/11/27 02:54:30;;;;;;;11.63;5.25;;;5.20;89.90;;;;;;5049966;28;20135;-60
2022/11/27 02:57:00;;;;;;;9.68;5.93;;;5.00;89.90;;;;;;5048652;28;20072;-60
2022/11/27 02:59:31;;;;;;;11.00;5.50;;;4.90;89.90;;;;;;5051245;28;20076;-60
2022/11/27 03:02:05;;;;;;;9.00;5.40;;;4.90;89.80;;;;;;5050970;28;20053;-68
2022/11/27 03:04:37;;;;;;;9.85;5.07;;;4.90;89.60;;;;;;5051567;28;20045;-67
2022/11/27 03:07:09;;;;;;;10.18;5.60;;;4.90;89.40;;;;;;5050398;28;20449;-61
2022/11/27 03:09:39;;;;;;;10.23;6.05;;;4.90;89.30;;;;;;5045320;28;20045;-60
2022/11/27 03:12:08;;;;;;;9.05;4.90;;;4.80;89.10;;;;;;5049838;28;20052;-60
2022/11/27 03:14:37;;;;;;;9.73;5.38;;;4.70;89.10;;;;;;5052839;28;20061;-61
2022/11/27 03:17:17;;;;;;;8.60;4.72;;;4.70;89.00;;;;;;5052440;28;20072;-60
2022/11/27 03:19:49;;;;;;;9.25;5.43;;;4.70;88.80;;;;;;5051417;28;20036;-62
2022/11/27 03:22:17;;;;;;;10.35;4.88;;;4.60;88.80;;;;;;5049865;28;20407;-60
2022/11/27 03:24:44;;;;;;;9.52;4.50;;;4.60;88.70;;;;;;5050746;28;20559;-60
2022/11/27 03:27:13;;;;;;;7.90;4.78;;;4.60;88.60;;;;;;5049860;28;20049;-61
2022/11/27 03:29:48;;;;;;;8.45;4.90;;;4.60;88.60;;;;;;5049606;28;20123;-61
2022/11/27 03:32:16;;;;;;;8.65;4.93;;;4.50;88.50;;;;;;5049299;28;20047;-60
2022/11/27 03:34:43;;;;;;;10.10;5.25;;;4.60;88.40;;;;;;5049718;28;20140;-61
2022/11/27 03:37:10;;;;;;;12.45;5.07;;;4.50;88.40;;;;;;5050472;28;20049;-63
2022/11/27 03:39:38;;;;;;;10.15;4.95;;;4.50;88.50;;;;;;5049975;28;20045;-62
2022/11/27 03:42:15;;;;;;;9.30;4.65;;;4.40;88.40;;;;;;5049061;28;20049;-66
2022/11/27 03:44:49;;;;;;;7.43;4.53;;;4.40;88.40;;;;;;5049229;28;20507;-66
2022/11/27 03:47:30;;;;;;;8.18;4.65;;;4.40;88.30;;;;;;5049398;28;20044;-65
2022/11/27 03:50:05;;;;;;;;;;;4.40;88.30;;;;;;5050163;28;20051;-65
2022/11/27 03:52:39;;;;;;;8.95;4.47;;;4.40;88.20;;;;;;5049619;28;20031;-65
2022/11/27 03:55:12;;;;;;;8.80;4.65;;;4.40;88.10;;;;;;5049610;28;20045;-65
2022/11/27 03:57:46;;;;;;;8.55;4.57;;;4.30;88.20;;;;;;5049502;28;20059;-65
2022/11/27 04:00:16;;;;;;;7.60;4.80;;;4.30;88.20;;;;;;5048254;28;20131;-65
2022/11/27 04:02:45;;;;;;;7.75;4.65;;;4.30;88.10;;;;;;5047339;28;20064;-71
2022/11/27 04:05:13;;;;;;;8.40;4.50;;;4.30;88.10;;;;;;5046938;28;20434;-71
2022/11/27 04:07:41;;;;;;;8.90;4.70;;;4.30;88.10;;;;;;5047575;28;20080;-72
2022/11/27 04:10:09;;;;;;;7.97;4.45;;;4.20;88.00;;;;;;5047638;28;20045;-71
2022/11/27 04:12:36;;;;;;;8.63;4.55;;;4.20;88.00;;;;;;5048590;28;20131;-72
2022/11/27 04:15:03;;;;;;;9.77;4.25;;;4.20;88.00;;;;;;5047855;28;20053;-72
2022/11/27 04:17:31;;;;;;;7.57;4.35;;;4.20;87.90;;;;;;5047768;28;20127;-72
2022/11/27 04:19:59;;;;;;;7.63;4.47;;;4.20;87.90;;;;;;5047085;28;20076;-72
2022/11/27 04:22:26;;;;;;;7.43;4.32;;;4.10;87.80;;;;;;5047203;28;20056;-72
2022/11/27 04:24:53;;;;;;;8.80;4.22;;;4.10;88.00;;;;;;5047483;28;20080;-71
2022/11/27 04:27:20;;;;;;;8.35;4.53;;;4.10;88.00;;;;;;5047128;28;20045;-72
2022/11/27 04:29:46;;;;;;;7.75;4.28;;;4.10;87.90;;;;;;5047338;28;20044;-72
2022/11/27 04:32:13;;;;;;;8.77;4.43;;;4.10;87.80;;;;;;5047774;28;20447;-61
2022/11/27 04:34:42;;;;;;;7.18;3.75;;;4.10;87.80;;;;;;5047563;28;20060;-61
2022/11/27 04:37:09;;;;;;;8.43;4.57;;;4.10;87.80;;;;;;5047647;28;20101;-62
2022/11/27 04:39:36;;;;;;;9.88;4.57;;;4.10;87.70;;;;;;5048922;28;20475;-62
2022/11/27 04:42:03;;;;;;;8.13;4.63;;;4.10;87.80;;;;;;5049942;28;20419;-65
2022/11/27 04:44:30;;;;;;;8.68;4.18;;;4.20;87.90;;;;;;5048267;28;20045;-64
2022/11/27 04:46:57;;;;;;;8.75;4.70;;;4.20;88.10;;;;;;5048421;28;20131;-68
2022/11/27 04:49:24;;;;;;;10.95;4.82;;;4.20;88.20;;;;;;5048837;28;20411;-67
2022/11/27 04:51:52;;;;;;;8.70;4.78;;;4.20;88.10;;;;;;5049654;28;20051;-68
2022/11/27 04:54:19;;;;;;;10.18;4.93;;;4.30;88.10;;;;;;5048653;28;20045;-69
2022/11/27 04:56:46;;;;;;;11.23;5.53;;;4.30;88.20;;;;;;5049408;28;20072;-68
2022/11/27 04:59:14;;;;;;;11.50;5.90;;;4.30;88.50;;;;;;5049113;28;20079;-67
2022/11/27 05:01:43;;;;;;;12.32;5.97;;;4.40;88.50;;;;;;5047918;28;20099;-65
2022/11/27 05:04:10;;;;;;;12.52;5.80;;;4.40;88.40;;;;;;5046926;28;20507;-68
2022/11/27 05:06:44;;;;;;;11.73;5.25;;;4.40;88.60;;;;;;5048079;28;20142;-68
2022/11/27 05:09:13;;;;;;;10.27;5.22;;;4.40;88.70;;;;;;5048297;28;20049;-68
2022/11/27 05:11:43;;;;;;;10.38;5.55;;;4.40;88.90;;;;;;5046025;28;20049;-67
2022/11/27 05:14:15;;;;;;;11.07;5.47;;;4.40;88.90;;;;;;5053090;28;20145;-68
2022/11/27 05:16:43;;;;;;;12.15;5.50;;;4.50;89.10;;;;;;5053554;28;20072;-67
2022/11/27 05:19:11;;;;;;;12.10;5.47;;;4.50;89.20;;;;;;5051609;28;20124;-68
2022/11/27 05:21:38;;;;;;;9.65;4.93;;;4.40;89.20;;;;;;5052971;28;20073;-69
2022/11/27 05:24:06;;;;;;;11.93;5.68;;;4.50;89.20;;;;;;5052624;28;20099;-69
2022/11/27 05:26:34;;;;;;;12.15;5.43;;;4.50;89.20;;;;;;5053751;28;20146;-67
2022/11/27 05:29:01;;;;;;;11.13;6.13;;;4.40;89.20;;;;;;5051028;28;20045;-68
2022/11/27 05:31:31;;;;;;;14.15;5.90;;;4.40;89.30;;;;;;5053573;28;20069;-60
2022/11/27 05:34:00;;;;;;;11.13;5.47;;;4.40;89.30;;;;;;5053283;28;20044;-60
2022/11/27 05:36:30;;;;;;;11.60;6.07;;;4.40;89.20;;;;;;5053651;28;20052;-59
2022/11/27 05:38:57;;;;;;;10.73;5.57;;;4.30;89.30;;;;;;5051660;28;20084;-60
2022/11/27 05:41:26;;;;;;;12.38;6.00;;;4.30;89.40;;;;;;5051369;28;20091;-59
2022/11/27 05:43:54;;;;;;;11.20;5.50;;;4.40;89.30;;;;;;5049529;28;20140;-61
2022/11/27 05:46:22;;;;;;;10.40;5.47;;;4.40;89.30;;;;;;5050752;28;20059;-60
2022/11/27 05:48:50;;;;;;;10.82;6.25;;;4.40;89.20;;;;;;5050688;28;20618;-59
2022/11/27 05:51:17;;;;;;;10.68;5.00;;;4.20;88.90;;;;;;5051028;28;20128;-61
2022/11/27 05:53:45;;;;;;;11.93;5.10;;;4.10;88.90;;;;;;5050890;28;20049;-60
2022/11/27 05:56:14;;;;;;;9.70;4.82;;;4.00;88.80;;;;;;5050017;28;20095;-59
2022/11/27 05:58:43;;;;;;;8.18;4.38;;;4.00;88.70;;;;;;5050664;28;20049;-59
2022/11/27 06:01:13;;;;;;;8.73;5.05;;;4.00;88.70;;;;;;5049321;28;20064;-61
2022/11/27 06:03:43;;;;;;;9.48;4.53;;;3.90;88.60;;;;;;5050380;28;20072;-61
2022/11/27 06:06:13;;;;;;;8.07;4.60;;;3.90;88.40;;;;;;5050810;28;20049;-62
2022/11/27 06:08:41;;;;;;;9.57;4.82;;;3.90;88.40;;;;;;5050181;28;20077;-62
2022/11/27 06:11:09;;;;;;;8.07;4.57;;;3.90;88.30;;;;;;5050650;28;20084;-62
2022/11/27 06:13:37;;;;;;;9.63;4.95;;;3.80;88.40;;;;;;5049660;28;20061;-61
2022/11/27 06:16:06;;;;;;;9.52;4.78;;;3.90;88.40;;;;;;5050382;28;20143;-62
2022/11/27 06:18:35;;;;;;;9.20;4.97;;;3.90;88.40;;;;;;5048806;28;20049;-63
2022/11/27 06:21:07;;;;;;;7.78;4.35;;;3.90;88.20;;;;;;5051948;28;20041;-63
2022/11/27 06:23:34;;;;;;;7.85;4.60;;;3.70;88.00;;;;;;5051262;28;20107;-60
2022/11/27 06:26:10;;;;;;;7.32;4.15;;;3.50;88.00;;;;;;5052155;28;20458;-68
2022/11/27 06:28:37;;;;;;;7.10;4.22;;;3.50;87.90;;;;;;5052346;28;20041;-68
2022/11/27 06:31:07;;;;;;;7.65;4.13;;;3.40;87.90;;;;;;5051866;28;20064;-68
2022/11/27 06:33:35;;;;;;;8.65;4.53;;;3.40;87.80;;;;;;5051018;28;20053;-67
2022/11/27 06:36:03;;;;;;;8.32;4.15;;;3.30;87.70;;;;;;5052118;28;20599;-69
2022/11/27 06:38:32;;;;;;;8.13;4.55;;;3.30;87.70;;;;;;5051714;28;20072;-68
2022/11/27 06:41:02;;;;;;;7.22;4.65;;;3.30;87.60;;;;;;5051290;28;20045;-67
2022/11/27 06:43:29;;;;;;;7.72;4.43;;;3.30;87.50;;;;;;5051340;28;20069;-67
2022/11/27 06:45:57;;;;;;;8.77;4.43;;;3.40;87.40;;;;;;5051392;28;20045;-61
2022/11/27 06:48:24;;;;;;;7.82;4.65;;;3.30;87.20;;;;;;5050780;28;20041;-63
2022/11/27 06:50:52;;;;;;;7.95;4.78;;;3.30;87.30;;;;;;5050013;28;20052;-62
2022/11/27 06:53:19;;;;;;;8.35;4.53;;;3.20;87.30;;;;;;5049292;28;20045;-63
2022/11/27 06:55:47;;;;;;;8.88;5.03;;;3.20;87.30;;;;;;5051309;28;20060;-61
2022/11/27 06:58:14;;;;;;;8.27;4.90;;;3.20;87.30;;;;;;5049568;28;20048;-62
2022/11/27 07:00:41;;;;;;;10.80;5.93;;;3.30;87.20;;;;;;5051436;28;20049;-62
2022/11/27 07:03:08;;;;;;;12.02;5.40;;;3.20;87.40;;;;;;5051309;28;20212;-60
2022/11/27 07:05:36;;;;;;;8.90;5.30;;;3.30;87.60;;;;;;5051129;28;20056;-64
2022/11/27 07:08:07;;;;;;;10.32;5.43;;;3.40;87.60;;;;;;5049748;28;20215;-63
2022/11/27 07:10:34;;;;;;;11.05;5.45;;;3.40;87.80;;;;;;5046136;28;20052;-64
2022/11/27 07:13:02;;;;;;;10.45;5.03;;;3.50;87.90;;;;;;5050354;28;20478;-63
2022/11/27 07:15:29;;;;;;;9.07;4.78;;;3.50;87.90;;;;;;5049880;28;20045;-62
2022/11/27 07:17:55;;;;;;;9.98;5.35;;;3.60;88.10;;;;;;5049955;28;20072;-62
2022/11/27 07:20:22;;;;;;;12.25;5.38;;;3.60;88.20;;;;;;5046805;28;20644;-61
2022/11/27 07:22:49;;;;;;;10.10;5.05;;;3.60;88.30;;;;;;5047305;28;20044;-62
2022/11/27 07:25:18;;;;;;;11.88;5.30;;;3.70;88.20;;;;;;5048098;28;20053;-61
2022/11/27 07:27:45;;;;;;;17.25;6.57;;;3.70;88.20;;;;;;5049021;28;20140;-63
2022/11/27 07:30:13;;;;;;;18.80;7.03;;;3.60;88.20;;;;;;5048773;28;20032;-62
2022/11/27 07:32:40;;;;;;;22.25;8.25;;;3.60;88.30;;;;;;5049784;28;20041;-61
2022/11/27 07:35:07;;;;;;;21.52;8.45;;;3.60;88.40;;;;;;5047398;28;20052;-63
2022/11/27 07:37:34;;;;;;;19.45;8.60;;;3.60;88.40;;;;;;5048072;28;20060;-63
2022/11/27 07:40:01;;;;;;;17.65;8.05;;;3.60;88.40;;;;;;5048769;28;20139;-63
2022/11/27 07:42:30;;;;;;;17.50;7.15;;;3.60;88.40;;;;;;5048007;28;20111;-62
2022/11/27 07:44:57;;;;;;;12.45;7.22;;;3.60;88.40;;;;;;5047646;28;20652;-63
2022/11/27 07:47:23;;;;;;;16.27;6.95;;;3.70;88.60;;;;;;5048183;28;20132;-63
2022/11/27 07:49:50;;;;;;;14.20;7.00;;;3.70;88.60;;;;;;5049279;28;20072;-61
2022/11/27 07:52:17;;;;;;;16.25;6.72;;;3.80;88.70;;;;;;5047338;28;20045;-63
2022/11/27 07:54:44;;;;;;;12.32;6.65;;;3.90;89.00;;;;;;5048016;28;20068;-62
2022/11/27 07:57:11;;;;;;;14.65;6.60;;;4.00;89.20;;;;;;5049032;28;20045;-62
2022/11/27 07:59:39;;;;;;;12.98;6.25;;;4.00;88.90;;;;;;5049358;28;20389;-61
2022/11/27 08:02:06;;;;;;;10.40;5.30;;;4.10;89.70;;;;;;5048565;28;20048;-62
2022/11/27 08:04:33;;;;;;;11.18;5.45;;;4.20;89.90;;;;;;5050264;28;20546;-61
2022/11/27 08:07:00;;;;;;;11.88;6.25;;;4.20;89.70;;;;;;5049645;28;20049;-63
2022/11/27 08:09:29;;;;;;;9.90;5.45;;;4.20;89.70;;;;;;5049496;28;20049;-61
2022/11/27 08:11:56;;;;;;;12.02;5.93;;;4.30;90.20;;;;;;5050120;28;20434;-65
2022/11/27 08:14:23;;;;;;;11.70;5.43;;;4.40;90.00;;;;;;5050452;28;20041;-62
2022/11/27 08:16:51;;;;;;;10.50;5.45;;;4.40;90.00;;;;;;5047916;28;20110;-63
2022/11/27 08:19:18;;;;;;;9.68;5.28;;;4.50;90.00;;;;;;5049287;28;20048;-63
2022/11/27 08:21:45;;;;;;;12.13;5.40;;;4.50;89.90;;;;;;5050206;28;20124;-62
2022/11/27 08:24:12;;;;;;;8.75;5.03;;;4.50;89.80;;;;;;5048824;28;20622;-63
2022/11/27 08:26:39;;;;;;;9.70;5.20;;;4.50;90.30;;;;;;5050050;28;20049;-62
2022/11/27 08:29:06;;;;;;;11.20;5.22;;;4.60;90.20;;;;;;5049652;28;20041;-65
2022/11/27 08:31:34;;;;;;;12.05;6.05;;;4.70;90.00;;;;;;5050365;28;20128;-61
2022/11/27 08:34:05;;;;;;;11.02;5.53;;;4.60;89.60;;;;;;5049231;28;20064;-61
2022/11/27 08:36:32;;;;;;;10.23;5.63;;;4.70;90.00;;;;;;5050184;28;20063;-63
2022/11/27 08:38:59;;;;;;;11.43;5.47;;;4.70;89.80;;;;;;5049794;28;20047;-63
2022/11/27 08:41:26;;;;;;;9.70;5.28;;;4.70;89.90;;;;;;5049159;28;20498;-60
2022/11/27 08:43:53;;;;;;;12.27;5.78;;;4.80;90.10;;;;;;5044271;28;20034;-60
2022/11/27 08:46:20;;;;;;;10.65;5.82;;;4.90;90.00;;;;;;5051650;28;20123;-64
2022/11/27 08:48:47;;;;;;;9.88;5.30;;;5.00;89.80;;;;;;5051757;28;20041;-64
2022/11/27 08:51:16;;;;;;;9.60;5.15;;;5.10;89.90;;;;;;5051998;28;20044;-59
2022/11/27 08:53:45;;;;;;;9.45;5.03;;;5.10;89.70;;;;;;5053723;28;20060;-59
2022/11/27 08:56:16;;;;;;;9.95;4.75;;;5.10;89.70;;;;;;5052566;28;20045;-59
2022/11/27 08:58:43;;;;;;;9.93;5.05;;;5.10;89.60;;;;;;5052987;28;20079;-59
2022/11/27 09:01:14;;;;;;;9.20;5.10;;;5.10;89.60;;;;;;5051562;28;20500;-61
2022/11/27 09:03:41;;;;;;;11.40;5.50;;;5.10;89.50;;;;;;5051952;28;20128;-60
2022/11/27 09:06:10;;;;;;;10.57;5.35;;;5.10;89.60;;;;;;5051404;28;20048;-60
2022/11/27 09:08:42;;;;;;;9.70;5.47;;;5.10;89.60;;;;;;5047306;28;20056;-61
2022/11/27 09:11:13;;;;;;;9.35;4.95;;;5.10;89.50;;;;;;5050524;28;20110;-69
2022/11/27 09:13:41;;;;;;;9.40;5.25;;;5.20;89.40;;;;;;5052151;28;20048;-67
2022/11/27 09:16:10;;;;;;;8.88;5.03;;;5.20;89.40;;;;;;5049532;28;20045;-67
2022/11/27 09:18:37;;;;;;;9.77;4.93;;;5.20;89.40;;;;;;5051706;28;20041;-67
2022/11/27 09:21:06;;;;;;;9.45;5.07;;;5.20;89.30;;;;;;5051374;28;20041;-68
2022/11/27 09:23:34;;;;;;;8.23;4.53;;;5.20;89.30;;;;;;5051443;28;20106;-68
2022/11/27 09:26:07;;;;;;;10.55;5.55;;;5.20;89.30;;;;;;5043938;28;20045;-68
2022/11/27 09:28:36;;;;;;;10.60;5.25;;;5.20;89.30;;;;;;5049945;28;20060;-68
2022/11/27 09:31:05;;;;;;;10.15;4.85;;;5.20;89.30;;;;;;5051184;28;20052;-66
2022/11/27 09:33:33;;;;;;;10.32;4.70;;;5.20;89.20;;;;;;5050263;28;20077;-68
2022/11/27 09:36:04;;;;;;;9.07;4.60;;;5.20;89.10;;;;;;5050936;28;20123;-67
2022/11/27 09:38:32;;;;;;;11.25;4.97;;;5.20;89.10;;;;;;5051194;28;20051;-67
2022/11/27 09:41:04;;;;;;;8.75;4.30;;;5.20;89.00;;;;;;5051371;28;20111;-67
2022/11/27 09:43:36;;;;;;;8.10;4.30;;;5.30;89.00;;;;;;5052383;28;20083;-66
2022/11/27 09:46:07;;;;;;;7.85;4.20;;;5.40;89.00;;;;;;5052591;28;20064;-67
2022/11/27 09:48:40;;;;;;;9.30;4.78;;;5.40;88.90;;;;;;5052786;28;20094;-67
2022/11/27 09:51:15;;;;;;;9.43;4.90;;;5.40;88.90;;;;;;5052212;28;20036;-67
2022/11/27 09:53:45;;;;;;;8.07;4.28;;;5.40;89.00;;;;;;5052454;28;20055;-68
2022/11/27 09:56:16;;;;;;;9.75;4.47;;;5.50;89.00;;;;;;5050979;28;20048;-67
2022/11/27 09:58:47;;;;;;;8.80;4.22;;;5.60;89.00;;;;;;5051708;28;20083;-68
2022/11/27 10:01:15;;;;;;;;;;;5.70;88.90;;;;;;5052738;28;20045;-66
2022/11/27 10:03:46;;;;;;;7.20;3.75;;;5.70;88.90;;;;;;5053063;28;19924;-66
2022/11/27 10:06:25;;;;;;;10.20;4.75;;;5.70;88.80;;;;;;5052618;28;20045;-66
2022/11/27 10:09:02;;;;;;;7.93;4.40;;;5.70;88.70;;;;;;5051718;28;20059;-67
2022/11/27 10:11:36;;;;;;;7.43;3.85;;;5.70;88.70;;;;;;5050604;28;20142;-68
2022/11/27 10:14:16;;;;;;;9.65;4.57;;;5.70;88.70;;;;;;5051250;28;20869;-69
2022/11/27 10:16:47;;;;;;;7.93;4.40;;;5.70;88.60;;;;;;5051879;28;20060;-68
2022/11/27 10:19:27;;;;;;;7.05;3.53;;;5.70;88.40;;;;;;5051651;28;20045;-68
2022/11/27 10:21:59;;;;;;;9.77;4.13;;;5.70;88.30;;;;;;5052180;28;20053;-68
2022/11/27 10:24:35;;;;;;;6.47;3.92;;;5.70;88.10;;;;;;5052651;28;20076;-68
2022/11/27 10:27:16;;;;;;;8.77;3.97;;;5.70;88.10;;;;;;5049904;28;20041;-69
2022/11/27 10:29:48;;;;;;;8.25;3.30;;;5.70;88.20;;;;;;5051902;28;20489;-68
2022/11/27 10:32:18;;;;;;;8.05;3.55;;;5.70;88.10;;;;;;5049720;28;20114;-68
2022/11/27 10:34:49;;;;;;;7.28;3.95;;;5.70;88.00;;;;;;5050469;28;20175;-68
2022/11/27 10:37:18;;;;;;;;;;;5.80;87.90;;;;;;5052362;28;20507;-70
2022/11/27 10:39:49;;;;;;;6.15;3.40;;;5.80;87.90;;;;;;5050989;28;19931;-66
2022/11/27 10:42:24;;;;;;;7.07;3.20;;;5.80;87.90;;;;;;5049516;28;20045;-59
2022/11/27 10:44:55;;;;;;;9.15;3.38;;;5.90;88.00;;;;;;5050349;28;20072;-60
2022/11/27 10:47:24;;;;;;;6.85;3.33;;;6.00;87.90;;;;;;5049501;28;20048;-61
2022/11/27 10:49:51;;;;;;;8.35;3.55;;;5.90;87.90;;;;;;5049817;28;20079;-60
2022/11/27 10:52:20;;;;;;;6.47;3.60;;;6.00;87.90;;;;;;5049287;28;20567;-60
2022/11/27 10:54:55;;;;;;;6.45;3.53;;;6.00;87.80;;;;;;5049787;28;20057;-61
2022/11/27 10:57:37;;;;;;;8.07;3.83;;;6.00;87.80;;;;;;5049595;28;20041;-61
2022/11/27 11:00:12;;;;;;;6.72;3.42;;;6.00;87.80;;;;;;5049380;28;20048;-60
2022/11/27 11:02:39;;;;;;;7.10;4.05;;;6.10;87.70;;;;;;5048352;28;20068;-61
2022/11/27 11:05:24;;;;;;;6.80;3.63;;;6.10;87.60;;;;;;5049815;28;20037;-60
2022/11/27 11:08:00;;;;;;;8.15;4.03;;;6.20;87.50;;;;;;5048881;28;20400;-61
2022/11/27 11:10:32;;;;;;;8.38;4.50;;;6.20;87.50;;;;;;5048475;28;20052;-65
2022/11/27 11:13:17;;;;;;;;;;;6.20;87.50;;;;;;5050518;28;20057;-64
2022/11/27 11:15:53;;;;;;;6.63;3.33;;;6.30;87.20;;;;;;5048997;28;20013;-64
2022/11/27 11:18:22;;;;;;;7.32;3.80;;;6.30;87.20;;;;;;5048264;28;20041;-64
2022/11/27 11:20:51;;;;;;;6.70;3.75;;;6.40;87.40;;;;;;5051225;28;20063;-64
2022/11/27 11:23:27;;;;;;;8.32;3.88;;;6.40;87.20;;;;;;5050865;28;20124;-63
2022/11/27 11:25:57;;;;;;;8.40;3.50;;;6.40;87.20;;;;;;5047715;28;20073;-62
2022/11/27 11:28:27;;;;;;;7.25;3.72;;;6.40;87.10;;;;;;5048877;28;20051;-63
2022/11/27 11:30:59;;;;;;;7.28;3.95;;;6.40;86.80;;;;;;5047920;28;20385;-64
2022/11/27 11:33:27;;;;;;;7.40;3.90;;;6.40;86.80;;;;;;5050489;28;20455;-65
2022/11/27 11:35:57;;;;;;;7.97;3.85;;;6.40;86.70;;;;;;5050564;28;20044;-65
2022/11/27 11:38:29;;;;;;;7.18;3.55;;;6.40;86.70;;;;;;5050398;28;20515;-64
2022/11/27 11:41:02;;;;;;;6.00;3.35;;;6.40;86.70;;;;;;5050300;28;20045;-65
2022/11/27 11:43:34;;;;;;;7.38;3.70;;;6.40;86.40;;;;;;5047018;28;20055;-64
2022/11/27 11:46:16;;;;;;;7.03;3.53;;;6.40;86.30;;;;;;5050499;28;20083;-63
2022/11/27 11:48:54;;;;;;;7.82;3.38;;;6.50;86.40;;;;;;5048505;28;20048;-64
2022/11/27 11:51:33;;;;;;;6.40;3.42;;;6.50;85.80;;;;;;5050569;28;20047;-64
2022/11/27 11:54:11;;;;;;;5.65;3.17;;;6.50;86.20;;;;;;5050117;28;20049;-64
2022/11/27 11:56:42;;;;;;;5.90;3.40;;;6.50;86.30;;;;;;5049042;28;20052;-63
2022/11/27 11:59:21;;;;;;;6.45;3.15;;;6.60;86.10;;;;;;5050586;28;20072;-64
2022/11/27 12:02:02;;;;;;;8.05;3.05;;;6.60;85.80;;;;;;5045839;28;20406;-64
2022/11/27 12:04:50;;;;;;;6.43;3.30;;;6.60;86.00;;;;;;5050014;28;20073;-64
2022/11/27 12:07:28;;;;;;;6.82;3.45;;;6.60;86.10;;;;;;5049644;28;20072;-63
2022/11/27 12:10:03;;;;;;;7.47;3.60;;;6.60;85.80;;;;;;5049263;28;20044;-64
2022/11/27 12:12:48;;;;;;;7.72;4.18;;;6.70;85.80;;;;;;5049010;28;20467;-63
2022/11/27 12:15:25;;;;;;;7.28;3.97;;;6.70;85.80;;;;;;5050333;28;20041;-63
2022/11/27 12:18:00;;;;;;;6.90;3.90;;;6.70;85.60;;;;;;5048833;28;20084;-64
2022/11/27 12:20:43;;;;;;;7.72;3.88;;;6.80;85.50;;;;;;5048209;28;20057;-63
2022/11/27 12:23:38;;;;;;;6.03;3.28;;;6.70;85.40;;;;;;5047679;28;20579;-65
2022/11/27 12:26:14;;;;;;;6.65;3.80;;;6.80;85.10;;;;;;5042011;28;20133;-65
2022/11/27 12:29:17;;;;;;;7.93;3.92;;;6.70;85.00;;;;;;5046809;28;20180;-65
2022/11/27 12:31:55;;;;;;;;;;;6.70;85.30;;;;;;5048560;28;20064;-64
2022/11/27 12:34:33;;;;;;;6.50;3.53;;;6.70;84.90;;;;;;5047135;28;19932;-64
2022/11/27 12:37:17;;;;;;;6.63;3.58;;;6.80;85.10;;;;;;5047656;28;20071;-65
2022/11/27 12:39:57;;;;;;;6.03;3.50;;;6.80;85.20;;;;;;5046686;28;20432;-64
2022/11/27 12:42:28;;;;;;;6.55;3.20;;;6.80;85.10;;;;;;5047812;28;20037;-64
2022/11/27 12:45:02;;;;;;;7.70;3.70;;;6.80;85.00;;;;;;5048438;28;20041;-65
2022/11/27 12:47:39;;;;;;;7.30;3.78;;;6.80;84.70;;;;;;5047368;28;20402;-66
2022/11/27 12:50:14;;;;;;;8.07;3.45;;;6.90;84.90;;;;;;5048096;28;20439;-64
2022/11/27 12:52:43;;;;;;;7.10;3.85;;;6.90;84.80;;;;;;5040350;28;20076;-65
2022/11/27 12:55:15;;;;;;;7.82;4.18;;;6.90;84.40;;;;;;5048245;28;20069;-64
2022/11/27 12:57:47;;;;;;;6.88;3.35;;;6.90;84.50;;;;;;5046376;28;20049;-65
2022/11/27 13:00:17;;;;;;;7.15;3.83;;;6.90;84.50;;;;;;5047750;28;20567;-64
2022/11/27 13:02:56;;;;;;;6.68;4.00;;;6.90;84.20;;;;;;5049780;28;20056;-64
2022/11/27 13:05:26;;;;;;;7.43;3.97;;;6.90;84.30;;;;;;5042944;28;20053;-63
2022/11/27 13:07:57;;;;;;;7.32;4.18;;;6.80;84.30;;;;;;5047789;28;20134;-64
2022/11/27 13:10:28;;;;;;;6.45;3.55;;;6.90;84.50;;;;;;5048709;28;20056;-65